createdAt,value
2017-10-12T00:01:14.803Z,8.40
2017-10-12T00:03:43.379Z,8.40
2017-10-12T00:06:10.924Z,8.40
2017-10-12T00:08:38.430Z,8.30
2017-10-12T00:11:06.324Z,8.20
2017-10-12T00:13:33.833Z,8.30
2017-10-12T00:16:01.451Z,8.40
2017-10-12T00:18:29.092Z,8.40
2017-10-12T00:20:56.635Z,8.40
2017-10-12T00:23:24.152Z,8.40
2017-10-12T00:25:51.730Z,8.40
2017-10-12T00:28:19.432Z,8.30
2017-10-12T00:30:46.955Z,8.50
2017-10-12T00:33:15.264Z,8.60
2017-10-12T00:35:42.799Z,8.60
2017-10-12T00:38:10.518Z,8.70
2017-10-12T00:40:38.094Z,8.80
2017-10-12T00:43:05.609Z,8.90
2017-10-12T00:45:33.410Z,8.90
2017-10-12T00:48:00.929Z,9.00
2017-10-12T00:50:28.448Z,8.90
2017-10-12T00:52:56.322Z,8.90
2017-10-12T00:55:24.589Z,8.80
2017-10-12T00:57:52.116Z,8.80
2017-10-12T01:00:19.711Z,8.80
2017-10-12T01:02:48.007Z,9.30
2017-10-12T01:05:16.295Z,9.00
2017-10-12T01:07:43.854Z,9.00
2017-10-12T01:10:11.380Z,9.00
2017-10-12T01:12:38.959Z,9.00
2017-10-12T01:15:06.514Z,9.10
2017-10-12T01:17:34.815Z,9.10
2017-10-12T01:20:02.867Z,9.10
2017-10-12T01:22:31.171Z,9.00
2017-10-12T01:24:58.790Z,9.00
2017-10-12T01:27:26.776Z,9.00
2017-10-12T01:29:54.339Z,8.90
2017-10-12T01:32:22.634Z,8.80
2017-10-12T01:34:50.278Z,8.80
2017-10-12T01:37:18.558Z,8.70
2017-10-12T01:39:46.101Z,8.70
2017-10-12T01:42:13.730Z,8.60
2017-10-12T01:44:41.256Z,8.60
2017-10-12T01:47:08.779Z,8.60
2017-10-12T01:49:37.879Z,8.40
2017-10-12T01:52:06.224Z,8.50
2017-10-12T01:54:33.733Z,8.50
2017-10-12T01:57:01.267Z,8.50
2017-10-12T01:59:30.063Z,8.60
2017-10-12T02:01:57.888Z,8.70
2017-10-12T02:04:25.399Z,8.70
2017-10-12T02:06:53.645Z,8.80
2017-10-12T02:09:21.492Z,8.80
2017-10-12T02:11:49.048Z,8.80
2017-10-12T02:14:16.622Z,8.80
2017-10-12T02:16:44.471Z,8.80
2017-10-12T02:19:12.376Z,8.80
2017-10-12T02:21:39.892Z,8.80
2017-10-12T02:24:07.451Z,8.70
2017-10-12T02:26:35.076Z,8.50
2017-10-12T02:29:02.588Z,8.50
2017-10-12T02:31:30.160Z,8.50
2017-10-12T02:33:57.676Z,8.60
2017-10-12T02:36:25.187Z,8.60
2017-10-12T02:38:52.826Z,8.60
2017-10-12T02:41:20.344Z,8.60
2017-10-12T02:43:47.862Z,8.70
2017-10-12T02:46:15.922Z,8.70
2017-10-12T02:48:43.690Z,8.70
2017-10-12T02:51:11.302Z,8.60
2017-10-12T02:53:38.876Z,8.60
2017-10-12T02:56:06.389Z,8.60
2017-10-12T02:58:34.764Z,8.50
2017-10-12T03:01:02.668Z,8.50
2017-10-12T03:03:30.219Z,8.50
2017-10-12T03:05:57.730Z,8.50
2017-10-12T03:08:25.322Z,8.40
2017-10-12T03:10:54.093Z,8.40
2017-10-12T03:13:21.601Z,8.40
2017-10-12T03:15:49.262Z,8.30
2017-10-12T03:18:16.800Z,8.20
2017-10-12T03:20:44.871Z,8.10
2017-10-12T03:23:13.231Z,8.10
2017-10-12T03:25:40.743Z,8.10
2017-10-12T03:28:08.689Z,8.20
2017-10-12T03:30:36.290Z,8.20
2017-10-12T03:33:04.011Z,8.10
2017-10-12T03:35:31.579Z,8.00
2017-10-12T03:37:59.151Z,8.00
2017-10-12T03:40:26.687Z,7.90
2017-10-12T03:42:54.348Z,7.80
2017-10-12T03:45:21.927Z,7.80
2017-10-12T03:47:49.442Z,7.80
2017-10-12T03:50:16.951Z,7.80
2017-10-12T03:52:45.205Z,7.80
2017-10-12T03:55:12.740Z,7.80
2017-10-12T03:57:41.039Z,7.70
2017-10-12T04:00:08.650Z,7.70
2017-10-12T04:02:36.176Z,7.60
2017-10-12T04:05:03.686Z,7.50
2017-10-12T04:07:31.256Z,7.40
2017-10-12T04:09:59.532Z,7.20
2017-10-12T04:12:27.807Z,7.20
2017-10-12T04:14:56.151Z,7.20
2017-10-12T04:17:23.659Z,7.20
2017-10-12T04:19:51.224Z,7.20
2017-10-12T04:22:19.566Z,7.10
2017-10-12T04:24:47.112Z,7.10
2017-10-12T04:27:14.767Z,7.10
2017-10-12T04:29:42.383Z,7.10
2017-10-12T04:32:09.892Z,7.10
2017-10-12T04:34:37.428Z,7.10
2017-10-12T04:37:04.992Z,7.20
2017-10-12T04:39:32.543Z,7.20
2017-10-12T04:42:00.080Z,7.20
2017-10-12T04:44:27.692Z,7.20
2017-10-12T04:46:55.291Z,7.20
2017-10-12T04:49:23.559Z,7.20
2017-10-12T04:51:51.892Z,7.30
2017-10-12T04:54:19.425Z,7.20
2017-10-12T04:56:46.935Z,7.30
2017-10-12T04:59:14.513Z,7.30
2017-10-12T05:01:42.013Z,7.20
2017-10-12T05:04:09.555Z,7.30
2017-10-12T05:06:37.103Z,7.30
2017-10-12T05:09:04.610Z,7.40
2017-10-12T05:11:32.111Z,7.50
2017-10-12T05:14:01.512Z,7.50
2017-10-12T05:16:30.034Z,7.50
2017-10-12T05:18:57.616Z,7.40
2017-10-12T05:21:25.953Z,7.50
2017-10-12T05:23:54.395Z,7.60
2017-10-12T05:26:24.768Z,7.70
2017-10-12T05:28:53.118Z,7.80
2017-10-12T05:31:20.623Z,7.90
2017-10-12T05:33:48.176Z,8.10
2017-10-12T05:36:15.711Z,8.10
2017-10-12T05:38:44.011Z,8.30
2017-10-12T05:41:11.643Z,8.30
2017-10-12T05:43:39.171Z,8.50
2017-10-12T05:46:06.674Z,8.60
2017-10-12T05:48:34.231Z,8.70
2017-10-12T05:51:01.730Z,8.80
2017-10-12T05:53:29.241Z,8.80
2017-10-12T05:55:56.846Z,8.80
2017-10-12T05:58:24.355Z,8.90
2017-10-12T06:00:51.867Z,9.00
2017-10-12T06:03:19.498Z,9.00
2017-10-12T06:05:47.007Z,9.20
2017-10-12T06:08:14.542Z,9.30
2017-10-12T06:10:42.129Z,9.50
2017-10-12T06:13:09.635Z,9.50
2017-10-12T06:15:37.139Z,9.60
2017-10-12T06:18:04.711Z,9.70
2017-10-12T06:20:32.399Z,9.70
2017-10-12T06:23:00.703Z,9.50
2017-10-12T06:25:28.811Z,9.50
2017-10-12T06:27:56.328Z,9.60
2017-10-12T06:30:23.839Z,9.80
2017-10-12T06:32:51.520Z,9.80
2017-10-12T06:35:19.866Z,10.00
2017-10-12T06:37:47.410Z,9.90
2017-10-12T06:40:15.060Z,10.10
2017-10-12T06:42:42.641Z,10.20
2017-10-12T06:45:10.147Z,10.30
2017-10-12T06:47:44.226Z,10.40
2017-10-12T06:50:11.759Z,10.60
2017-10-12T06:52:39.514Z,10.80
2017-10-12T06:55:07.141Z,11.00
2017-10-12T06:57:34.714Z,11.10
2017-10-12T07:00:03.027Z,11.40
2017-10-12T07:02:30.531Z,11.40
2017-10-12T07:04:58.039Z,11.60
2017-10-12T07:07:25.659Z,11.80
2017-10-12T07:09:53.235Z,11.90
2017-10-12T07:12:20.734Z,12.10
2017-10-12T07:14:48.308Z,12.10
2017-10-12T07:17:15.827Z,12.20
2017-10-12T07:19:43.327Z,11.60
2017-10-12T07:22:10.993Z,11.50
2017-10-12T07:24:38.511Z,11.60
2017-10-12T07:27:06.089Z,11.60
2017-10-12T07:29:33.653Z,11.60
2017-10-12T07:32:01.204Z,11.50
2017-10-12T07:34:28.747Z,11.60
2017-10-12T07:36:56.316Z,11.70
2017-10-12T07:39:23.842Z,11.80
2017-10-12T07:41:51.355Z,12.00
2017-10-12T07:44:18.917Z,12.20
2017-10-12T07:46:46.448Z,12.30
2017-10-12T07:49:14.169Z,12.40
2017-10-12T07:51:42.492Z,12.50
2017-10-12T07:54:10.004Z,12.50
2017-10-12T07:56:37.511Z,12.30
2017-10-12T07:59:05.231Z,12.30
2017-10-12T08:01:33.576Z,12.50
2017-10-12T08:04:01.095Z,12.40
2017-10-12T08:06:28.947Z,12.50
2017-10-12T08:08:56.468Z,12.60
2017-10-12T08:11:23.976Z,12.80
2017-10-12T08:13:51.836Z,13.00
2017-10-12T08:16:19.452Z,13.10
2017-10-12T08:18:46.946Z,13.60
2017-10-12T08:21:15.268Z,14.30
2017-10-12T08:23:42.571Z,14.20
2017-10-12T08:26:09.899Z,14.60
2017-10-12T08:28:37.484Z,15.10
2017-10-12T08:31:05.081Z,15.40
2017-10-12T08:33:32.579Z,15.50
2017-10-12T08:36:00.223Z,15.80
2017-10-12T08:38:27.642Z,16.30
2017-10-12T08:40:55.004Z,16.60
2017-10-12T08:43:22.561Z,16.60
2017-10-12T08:45:50.207Z,17.00
2017-10-12T08:48:18.525Z,17.20
2017-10-12T08:50:46.115Z,17.10
2017-10-12T08:53:13.632Z,17.20
2017-10-12T08:55:41.146Z,17.10
2017-10-12T08:58:08.735Z,17.10
2017-10-12T09:00:36.253Z,17.10
2017-10-12T09:03:03.751Z,17.50
2017-10-12T09:05:31.295Z,18.30
2017-10-12T09:07:59.565Z,18.30
2017-10-12T09:10:27.856Z,18.30
2017-10-12T09:12:56.185Z,18.80
2017-10-12T09:15:23.692Z,18.70
2017-10-12T09:17:52.119Z,19.10
2017-10-12T09:20:19.699Z,19.80
2017-10-12T09:22:47.221Z,20.50
2017-10-12T09:25:14.496Z,20.20
2017-10-12T09:27:42.111Z,19.60
2017-10-12T09:30:09.612Z,18.80
2017-10-12T09:32:37.115Z,18.40
2017-10-12T09:35:04.792Z,18.20
2017-10-12T09:37:32.350Z,18.30
2017-10-12T09:39:59.847Z,18.00
2017-10-12T09:42:27.455Z,17.90
2017-10-12T09:44:55.838Z,17.50
2017-10-12T09:47:23.346Z,17.40
2017-10-12T09:49:50.896Z,17.40
2017-10-12T09:52:18.489Z,17.00
2017-10-12T09:54:45.990Z,17.10
2017-10-12T09:57:13.559Z,17.20
2017-10-12T09:59:41.076Z,17.30
2017-10-12T10:02:08.577Z,17.30
2017-10-12T10:04:36.158Z,17.60
2017-10-12T10:07:03.803Z,18.00
2017-10-12T10:09:31.340Z,18.20
2017-10-12T10:11:58.959Z,18.40
2017-10-12T10:14:26.475Z,18.30
2017-10-12T10:16:54.014Z,18.40
2017-10-12T10:19:21.564Z,18.10
2017-10-12T10:21:49.853Z,17.70
2017-10-12T10:24:17.382Z,17.70
2017-10-12T10:26:45.082Z,17.80
2017-10-12T10:29:12.693Z,17.90
2017-10-12T10:31:40.249Z,18.00
2017-10-12T10:34:07.575Z,18.20
2017-10-12T10:36:35.213Z,18.40
2017-10-12T10:39:02.720Z,18.40
2017-10-12T10:41:30.364Z,18.10
2017-10-12T10:43:57.876Z,17.90
2017-10-12T10:46:25.414Z,17.90
2017-10-12T10:48:52.984Z,18.10
2017-10-12T10:51:20.519Z,18.10
2017-10-12T10:53:48.019Z,18.20
2017-10-12T10:56:16.351Z,18.10
2017-10-12T10:58:43.920Z,18.10
2017-10-12T11:01:11.471Z,18.30
2017-10-12T11:03:38.880Z,18.20
2017-10-12T11:06:07.253Z,18.40
2017-10-12T11:08:34.760Z,18.40
2017-10-12T11:11:02.352Z,18.60
2017-10-12T11:13:29.858Z,18.80
2017-10-12T11:15:57.373Z,19.00
2017-10-12T11:18:24.927Z,19.70
2017-10-12T11:20:52.467Z,19.80
2017-10-12T11:23:20.013Z,19.60
2017-10-12T11:25:48.134Z,19.80
2017-10-12T11:28:15.642Z,19.80
2017-10-12T11:30:43.175Z,19.40
2017-10-12T11:33:10.787Z,18.90
2017-10-12T11:35:38.286Z,18.90
2017-10-12T11:38:06.648Z,18.60
2017-10-12T11:40:34.216Z,18.50
2017-10-12T11:43:02.503Z,18.10
2017-10-12T11:45:30.769Z,17.80
2017-10-12T11:47:59.129Z,17.70
2017-10-12T11:50:26.631Z,17.60
2017-10-12T11:52:53.896Z,17.50
2017-10-12T11:55:21.451Z,17.10
2017-10-12T11:57:48.951Z,16.50
2017-10-12T12:00:16.558Z,16.30
2017-10-12T12:02:44.184Z,16.20
2017-10-12T12:05:11.694Z,16.20
2017-10-12T12:07:39.142Z,16.30
2017-10-12T12:10:06.834Z,16.50
2017-10-12T12:12:34.343Z,16.50
2017-10-12T12:15:02.026Z,16.40
2017-10-12T12:17:29.611Z,16.70
2017-10-12T12:19:57.893Z,17.00
2017-10-12T12:22:25.448Z,17.00
2017-10-12T12:24:52.980Z,17.00
2017-10-12T12:27:20.586Z,17.30
2017-10-12T12:29:48.175Z,17.70
2017-10-12T12:32:15.680Z,18.20
2017-10-12T12:34:43.179Z,18.60
2017-10-12T12:37:10.734Z,18.80
2017-10-12T12:39:38.231Z,19.00
2017-10-12T12:42:05.852Z,18.90
2017-10-12T12:44:33.427Z,19.00
2017-10-12T12:47:01.694Z,18.60
2017-10-12T12:49:29.194Z,18.60
2017-10-12T12:51:56.779Z,18.60
2017-10-12T12:54:24.106Z,18.40
2017-10-12T12:56:51.652Z,18.10
2017-10-12T12:59:19.281Z,18.20
2017-10-12T13:01:47.708Z,18.20
2017-10-12T13:04:15.215Z,18.10
2017-10-12T13:06:42.809Z,18.20
2017-10-12T13:09:11.131Z,18.90
2017-10-12T13:11:38.635Z,18.80
2017-10-12T13:14:06.186Z,19.30
2017-10-12T13:16:33.690Z,19.50
2017-10-12T13:19:01.312Z,19.60
2017-10-12T13:21:29.637Z,20.20
2017-10-12T13:23:57.155Z,20.10
2017-10-12T13:26:24.681Z,20.10
2017-10-12T13:28:52.229Z,19.90
2017-10-12T13:31:19.739Z,20.10
2017-10-12T13:33:47.255Z,19.90
2017-10-12T13:36:14.807Z,19.90
2017-10-12T13:38:42.897Z,20.00
2017-10-12T13:41:10.403Z,19.90
2017-10-12T13:43:38.065Z,19.90
2017-10-12T13:46:05.849Z,19.80
2017-10-12T13:48:33.351Z,19.50
2017-10-12T13:51:01.235Z,19.40
2017-10-12T13:53:28.739Z,19.40
2017-10-12T13:55:56.075Z,19.40
2017-10-12T13:58:23.626Z,19.40
2017-10-12T14:00:51.132Z,19.20
2017-10-12T14:03:18.856Z,19.10
2017-10-12T14:05:46.203Z,18.90
2017-10-12T14:08:13.743Z,18.80
2017-10-12T14:10:42.031Z,18.90
2017-10-12T14:13:10.407Z,18.90
2017-10-12T14:15:37.976Z,18.90
2017-10-12T14:18:05.509Z,19.10
2017-10-12T14:20:33.108Z,19.30
2017-10-12T14:23:00.655Z,19.50
2017-10-12T14:25:28.374Z,19.60
2017-10-12T14:27:55.936Z,19.60
2017-10-12T14:30:23.439Z,19.40
2017-10-12T14:32:50.964Z,19.50
2017-10-12T14:35:18.523Z,19.30
2017-10-12T14:37:46.115Z,19.10
2017-10-12T14:40:13.693Z,19.00
2017-10-12T14:42:41.490Z,18.80
2017-10-12T14:45:09.004Z,18.80
2017-10-12T14:47:36.601Z,18.90
2017-10-12T14:50:04.259Z,18.80
2017-10-12T14:52:31.760Z,18.60
2017-10-12T14:54:59.281Z,18.50
2017-10-12T14:57:27.040Z,18.40
2017-10-12T14:59:54.550Z,18.30
2017-10-12T15:02:22.048Z,18.20
2017-10-12T15:04:49.656Z,18.20
2017-10-12T15:07:17.304Z,18.00
2017-10-12T15:09:45.405Z,18.00
2017-10-12T15:12:12.991Z,18.00
2017-10-12T15:14:40.496Z,18.00
2017-10-12T15:17:07.995Z,18.10
2017-10-12T15:19:35.708Z,18.10
2017-10-12T15:22:03.215Z,18.20
2017-10-12T15:24:31.091Z,18.20
2017-10-12T15:26:58.643Z,18.20
2017-10-12T15:29:26.156Z,18.10
2017-10-12T15:31:53.656Z,18.10
2017-10-12T15:34:21.271Z,18.20
2017-10-12T15:36:48.838Z,17.90
2017-10-12T15:39:16.366Z,17.80
2017-10-12T15:41:43.941Z,17.70
2017-10-12T15:44:11.441Z,17.60
2017-10-12T15:46:39.076Z,17.50
2017-10-12T15:49:06.639Z,17.40
2017-10-12T15:51:34.141Z,17.40
2017-10-12T15:54:01.809Z,17.30
2017-10-12T15:56:29.366Z,17.20
2017-10-12T15:58:57.199Z,17.30
2017-10-12T16:01:25.472Z,17.00
2017-10-12T16:03:53.027Z,17.00
2017-10-12T16:06:20.543Z,16.90
2017-10-12T16:08:48.238Z,16.90
2017-10-12T16:11:15.807Z,16.80
2017-10-12T16:13:43.299Z,16.80
2017-10-12T16:16:11.718Z,16.60
2017-10-12T16:18:39.311Z,16.60
2017-10-12T16:21:07.639Z,16.50
2017-10-12T16:23:35.211Z,16.40
2017-10-12T16:26:02.788Z,16.40
2017-10-12T16:28:30.307Z,16.30
2017-10-12T16:30:57.807Z,16.20
2017-10-12T16:33:25.380Z,16.10
2017-10-12T16:35:52.883Z,16.00
2017-10-12T16:38:20.376Z,15.90
2017-10-12T16:40:47.708Z,15.80
2017-10-12T16:43:15.200Z,15.60
2017-10-12T16:45:42.699Z,15.40
2017-10-12T16:48:11.275Z,15.40
2017-10-12T16:50:53.758Z,15.40
2017-10-12T16:53:06.319Z,15.50
2017-10-12T16:55:33.855Z,15.60
2017-10-12T16:58:01.359Z,15.60
2017-10-12T17:00:30.027Z,15.60
2017-10-12T17:02:57.832Z,15.70
2017-10-12T17:05:26.043Z,15.70
2017-10-12T17:07:54.395Z,15.50
2017-10-12T17:10:22.415Z,15.50
2017-10-12T17:12:49.918Z,15.50
2017-10-12T17:15:17.423Z,15.40
2017-10-12T17:17:45.451Z,15.50
2017-10-12T17:20:12.952Z,15.40
2017-10-12T17:22:40.504Z,15.50
2017-10-12T17:25:08.327Z,15.40
2017-10-12T17:27:36.042Z,15.40
2017-10-12T17:30:03.559Z,15.30
2017-10-12T17:32:31.127Z,15.30
2017-10-12T17:34:58.815Z,15.20
2017-10-12T17:37:27.215Z,15.00
2017-10-12T17:39:54.714Z,15.00
2017-10-12T17:42:22.370Z,14.90
2017-10-12T17:44:49.872Z,14.80
2017-10-12T17:47:18.208Z,14.60
2017-10-12T17:49:46.038Z,14.60
2017-10-12T17:52:13.553Z,14.60
2017-10-12T17:54:41.642Z,14.50
2017-10-12T17:57:09.635Z,14.50
2017-10-12T17:59:37.142Z,14.30
2017-10-12T18:02:04.681Z,14.20
2017-10-12T18:04:47.205Z,14.00
2017-10-12T18:06:59.823Z,13.80
2017-10-12T18:09:27.344Z,13.70
2017-10-12T18:14:23.537Z,13.40
2017-10-12T18:16:51.108Z,13.30
2017-10-12T18:19:19.680Z,13.10
2017-10-12T18:21:47.195Z,13.10
2017-10-12T18:24:15.639Z,13.00
2017-10-12T18:26:43.531Z,12.90
2017-10-12T18:29:11.052Z,12.80
2017-10-12T18:31:39.403Z,12.60
2017-10-12T18:34:07.517Z,12.50
2017-10-12T18:36:35.027Z,12.50
2017-10-12T18:39:02.640Z,12.40
2017-10-12T18:41:31.486Z,12.30
2017-10-12T18:43:59.027Z,12.30
2017-10-12T18:46:26.612Z,12.30
2017-10-12T18:48:54.125Z,12.30
2017-10-12T18:51:21.634Z,12.30
2017-10-12T18:53:49.333Z,12.20
2017-10-12T18:56:16.859Z,12.20
2017-10-12T18:58:44.538Z,12.10
2017-10-12T19:01:12.382Z,12.10
2017-10-12T19:03:39.918Z,12.10
2017-10-12T19:06:07.419Z,12.00
2017-10-12T19:08:35.804Z,12.00
2017-10-12T19:11:03.459Z,11.90
2017-10-12T19:13:31.015Z,11.90
2017-10-12T19:16:00.930Z,11.90
2017-10-12T19:18:29.248Z,11.80
2017-10-12T19:20:56.759Z,11.80
2017-10-12T19:23:24.359Z,11.70
2017-10-12T19:25:51.904Z,11.60
2017-10-12T19:30:47.363Z,11.50
2017-10-12T19:33:14.676Z,11.40
2017-10-12T19:35:42.292Z,11.40
2017-10-12T19:38:10.099Z,11.40
2017-10-12T19:40:38.375Z,11.60
2017-10-12T19:43:06.651Z,11.60
2017-10-12T19:45:35.090Z,11.60
2017-10-12T19:48:02.718Z,11.60
2017-10-12T19:50:30.227Z,11.70
2017-10-12T19:52:57.804Z,11.60
2017-10-12T19:55:25.311Z,11.60
2017-10-12T19:57:52.811Z,11.70
2017-10-12T20:00:21.437Z,11.60
2017-10-12T20:02:48.971Z,11.70
2017-10-12T20:05:17.252Z,11.60
2017-10-12T20:07:45.822Z,11.60
2017-10-12T20:10:13.331Z,11.60
2017-10-12T20:12:40.905Z,11.60
2017-10-12T20:15:08.555Z,11.60
2017-10-12T20:17:36.067Z,11.50
2017-10-12T20:20:03.588Z,11.50
2017-10-12T20:22:31.153Z,11.40
2017-10-12T20:25:00.074Z,11.40
2017-10-12T20:27:27.607Z,11.30
2017-10-12T20:29:55.145Z,11.30
2017-10-12T20:32:22.720Z,11.20
2017-10-12T20:34:50.257Z,11.10
2017-10-12T20:37:18.120Z,11.10
2017-10-12T20:39:45.716Z,10.90
2017-10-12T20:44:41.023Z,10.80
2017-10-12T20:47:08.532Z,10.70
2017-10-12T20:49:37.839Z,10.70
2017-10-12T20:52:06.612Z,10.70
2017-10-12T20:54:34.188Z,10.70
2017-10-12T20:57:02.568Z,10.70
2017-10-12T20:59:30.159Z,10.60
2017-10-12T21:01:57.699Z,10.70
2017-10-12T21:04:25.293Z,10.80
2017-10-12T21:06:52.856Z,10.70
2017-10-12T21:09:20.361Z,10.70
2017-10-12T21:11:48.122Z,10.60
2017-10-12T21:14:16.999Z,10.40
2017-10-12T21:16:44.801Z,10.30
2017-10-12T21:19:12.391Z,10.30
2017-10-12T21:21:40.040Z,10.30
2017-10-12T21:24:07.842Z,10.20
2017-10-12T21:26:35.668Z,10.20
2017-10-12T21:29:03.877Z,10.20
2017-10-12T21:31:31.579Z,10.10
2017-10-12T21:33:59.134Z,10.10
2017-10-12T21:36:27.012Z,10.00
2017-10-12T21:38:54.833Z,10.00
2017-10-12T21:41:22.587Z,9.90
2017-10-12T21:43:50.538Z,10.00
2017-10-12T21:46:18.055Z,10.00
2017-10-12T21:48:45.806Z,10.10
2017-10-12T21:51:13.705Z,10.10
2017-10-12T21:53:41.284Z,10.10
2017-10-12T21:56:08.852Z,10.00
2017-10-12T21:58:37.166Z,10.10
2017-10-12T22:01:04.681Z,10.10
2017-10-12T22:03:32.231Z,10.10
2017-10-12T22:06:00.843Z,10.20
2017-10-12T22:08:28.364Z,10.30
2017-10-12T22:10:55.883Z,10.40
2017-10-12T22:13:23.551Z,10.40
2017-10-12T22:15:51.625Z,10.60
2017-10-12T22:18:19.491Z,10.60
2017-10-12T22:20:47.124Z,10.70
2017-10-12T22:23:14.672Z,10.60
2017-10-12T22:25:42.187Z,10.60
2017-10-12T22:28:10.842Z,10.30
2017-10-12T22:30:39.483Z,10.30
2017-10-12T22:33:07.306Z,10.30
2017-10-12T22:35:34.893Z,10.20
2017-10-12T22:38:03.818Z,10.10
2017-10-12T22:40:31.331Z,10.10
2017-10-12T22:42:59.227Z,10.00
2017-10-12T22:45:26.976Z,9.90
2017-10-12T22:47:54.738Z,9.80
2017-10-12T22:50:22.854Z,9.70
2017-10-12T22:52:51.244Z,9.80
2017-10-12T22:55:18.895Z,9.70
2017-10-12T22:57:46.980Z,9.70
2017-10-12T23:00:14.600Z,9.60
2017-10-12T23:02:42.347Z,9.50
2017-10-12T23:05:10.573Z,9.50
2017-10-12T23:07:38.116Z,9.50
2017-10-12T23:10:05.712Z,9.40
2017-10-12T23:12:33.300Z,9.40
2017-10-12T23:15:01.579Z,9.30
2017-10-12T23:17:30.022Z,9.30
2017-10-12T23:19:57.595Z,9.30
2017-10-12T23:22:25.116Z,9.30
2017-10-12T23:24:52.822Z,9.30
2017-10-12T23:27:20.748Z,9.20
2017-10-12T23:29:48.275Z,9.20
2017-10-12T23:32:15.865Z,9.20
2017-10-12T23:34:43.940Z,9.10
2017-10-12T23:37:11.451Z,9.10
2017-10-12T23:39:39.163Z,9.10
2017-10-12T23:42:06.964Z,9.00
2017-10-12T23:44:34.614Z,9.00
2017-10-12T23:47:02.122Z,9.00
2017-10-12T23:49:30.026Z,9.00
2017-10-12T23:51:57.543Z,9.00
2017-10-12T23:54:26.062Z,8.90
2017-10-12T23:56:53.676Z,8.90
2017-10-12T23:59:21.948Z,8.90
